sensor_id;sensor_type;location;lat;lon;timestamp;P1;durP1;ratioP1;P2;durP2;ratioP2
11791;SDS011;5953;52.372;9.918;2024-02-23T00:02:24;3.50;;;0.90;;
11791;SDS011;5953;52.372;9.918;2024-02-23T00:04:52;3.97;;;0.93;;
11791;SDS011;5953;52.372;9.918;2024-02-23T00:07:20;3.37;;;0.80;;
11791;SDS011;5953;52.372;9.918;2024-02-23T00:09:48;3.10;;;1.10;;
11791;SDS011;5953;52.372;9.918;2024-02-23T00:12:17;2.47;;;1.20;;
11791;SDS011;5953;52.372;9.918;2024-02-23T00:14:45;3.37;;;1.00;;
11791;SDS011;5953;52.372;9.918;2024-02-23T00:17:12;3.03;;;1.20;;
11791;SDS011;5953;52.372;9.918;2024-02-23T00:19:40;4.43;;;1.30;;
11791;SDS011;5953;52.372;9.918;2024-02-23T00:22:08;2.00;;;0.80;;
11791;SDS011;5953;52.372;9.918;2024-02-23T00:24:36;2.17;;;0.80;;
11791;SDS011;5953;52.372;9.918;2024-02-23T00:27:04;3.43;;;0.97;;
11791;SDS011;5953;52.372;9.918;2024-02-23T00:29:33;3.50;;;0.87;;
11791;SDS011;5953;52.372;9.918;2024-02-23T00:32:01;3.20;;;0.80;;
11791;SDS011;5953;52.372;9.918;2024-02-23T00:34:29;3.10;;;0.83;;
11791;SDS011;5953;52.372;9.918;2024-02-23T00:37:00;1.70;;;0.57;;
11791;SDS011;5953;52.372;9.918;2024-02-23T00:39:28;1.53;;;1.00;;
11791;SDS011;5953;52.372;9.918;2024-02-23T00:41:57;2.70;;;0.77;;
11791;SDS011;5953;52.372;9.918;2024-02-23T00:44:25;2.17;;;0.67;;
11791;SDS011;5953;52.372;9.918;2024-02-23T00:46:54;3.33;;;0.80;;
11791;SDS011;5953;52.372;9.918;2024-02-23T00:49:24;3.27;;;0.80;;
11791;SDS011;5953;52.372;9.918;2024-02-23T00:51:52;2.93;;;0.97;;
11791;SDS011;5953;52.372;9.918;2024-02-23T00:54:20;1.93;;;0.77;;
11791;SDS011;5953;52.372;9.918;2024-02-23T00:56:48;4.43;;;1.03;;
11791;SDS011;5953;52.372;9.918;2024-02-23T00:59:18;2.43;;;0.70;;
11791;SDS011;5953;52.372;9.918;2024-02-23T01:01:47;3.53;;;1.00;;
11791;SDS011;5953;52.372;9.918;2024-02-23T01:04:16;2.47;;;1.07;;
11791;SDS011;5953;52.372;9.918;2024-02-23T01:06:44;1.13;;;0.80;;
11791;SDS011;5953;52.372;9.918;2024-02-23T01:09:12;3.17;;;0.87;;
11791;SDS011;5953;52.372;9.918;2024-02-23T01:11:42;3.00;;;0.80;;
11791;SDS011;5953;52.372;9.918;2024-02-23T01:14:13;1.37;;;0.70;;
11791;SDS011;5953;52.372;9.918;2024-02-23T01:16:41;1.37;;;0.80;;
11791;SDS011;5953;52.372;9.918;2024-02-23T01:19:09;1.17;;;0.60;;
11791;SDS011;5953;52.372;9.918;2024-02-23T01:21:38;4.23;;;0.80;;
11791;SDS011;5953;52.372;9.918;2024-02-23T01:24:06;1.50;;;0.70;;
11791;SDS011;5953;52.372;9.918;2024-02-23T01:26:34;1.83;;;0.77;;
11791;SDS011;5953;52.372;9.918;2024-02-23T01:29:06;1.00;;;0.50;;
11791;SDS011;5953;52.372;9.918;2024-02-23T01:31:34;3.37;;;0.77;;
11791;SDS011;5953;52.372;9.918;2024-02-23T01:34:04;1.47;;;0.60;;
11791;SDS011;5953;52.372;9.918;2024-02-23T01:36:32;1.33;;;0.70;;
11791;SDS011;5953;52.372;9.918;2024-02-23T01:39:02;1.80;;;0.50;;
11791;SDS011;5953;52.372;9.918;2024-02-23T01:41:30;1.83;;;0.50;;
11791;SDS011;5953;52.372;9.918;2024-02-23T01:44:00;2.47;;;0.53;;
11791;SDS011;5953;52.372;9.918;2024-02-23T01:46:27;2.10;;;0.40;;
11791;SDS011;5953;52.372;9.918;2024-02-23T01:48:55;0.97;;;0.30;;
11791;SDS011;5953;52.372;9.918;2024-02-23T01:51:24;0.40;;;0.30;;
11791;SDS011;5953;52.372;9.918;2024-02-23T01:53:52;0.50;;;0.40;;
11791;SDS011;5953;52.372;9.918;2024-02-23T01:56:22;0.30;;;0.30;;
11791;SDS011;5953;52.372;9.918;2024-02-23T01:58:50;0.47;;;0.43;;
11791;SDS011;5953;52.372;9.918;2024-02-23T02:01:18;0.53;;;0.40;;
11791;SDS011;5953;52.372;9.918;2024-02-23T02:03:59;0.60;;;0.30;;
11791;SDS011;5953;52.372;9.918;2024-02-23T02:06:27;0.40;;;0.40;;
11791;SDS011;5953;52.372;9.918;2024-02-23T02:08:55;0.40;;;0.30;;
11791;SDS011;5953;52.372;9.918;2024-02-23T02:11:24;0.27;;;0.27;;
11791;SDS011;5953;52.372;9.918;2024-02-23T02:13:52;1.80;;;0.43;;
11791;SDS011;5953;52.372;9.918;2024-02-23T02:16:20;0.30;;;0.30;;
11791;SDS011;5953;52.372;9.918;2024-02-23T02:18:48;0.20;;;0.20;;
11791;SDS011;5953;52.372;9.918;2024-02-23T02:21:16;0.20;;;0.20;;
11791;SDS011;5953;52.372;9.918;2024-02-23T02:23:50;1.40;;;0.20;;
11791;SDS011;5953;52.372;9.918;2024-02-23T02:26:17;0.13;;;0.13;;
11791;SDS011;5953;52.372;9.918;2024-02-23T02:28:47;2.03;;;0.20;;
11791;SDS011;5953;52.372;9.918;2024-02-23T02:31:17;0.10;;;0.10;;
11791;SDS011;5953;52.372;9.918;2024-02-23T02:33:55;0.10;;;0.10;;
11791;SDS011;5953;52.372;9.918;2024-02-23T02:36:23;0.20;;;0.20;;
11791;SDS011;5953;52.372;9.918;2024-02-23T02:38:51;0.20;;;0.20;;
11791;SDS011;5953;52.372;9.918;2024-02-23T02:41:19;0.33;;;0.33;;
11791;SDS011;5953;52.372;9.918;2024-02-23T02:43:48;0.10;;;0.10;;
11791;SDS011;5953;52.372;9.918;2024-02-23T02:46:16;0.30;;;0.30;;
11791;SDS011;5953;52.372;9.918;2024-02-23T02:48:44;0.23;;;0.13;;
11791;SDS011;5953;52.372;9.918;2024-02-23T02:51:12;0.20;;;0.20;;
11791;SDS011;5953;52.372;9.918;2024-02-23T02:53:40;0.20;;;0.20;;
11791;SDS011;5953;52.372;9.918;2024-02-23T02:56:08;0.77;;;0.30;;
11791;SDS011;5953;52.372;9.918;2024-02-23T02:58:36;0.30;;;0.30;;
11791;SDS011;5953;52.372;9.918;2024-02-23T03:01:05;0.30;;;0.20;;
11791;SDS011;5953;52.372;9.918;2024-02-23T03:03:33;1.40;;;0.23;;
11791;SDS011;5953;52.372;9.918;2024-02-23T03:06:01;0.67;;;0.57;;
11791;SDS011;5953;52.372;9.918;2024-02-23T03:08:29;0.30;;;0.30;;
11791;SDS011;5953;52.372;9.918;2024-02-23T03:10:57;0.40;;;0.40;;
11791;SDS011;5953;52.372;9.918;2024-02-23T03:13:25;1.60;;;0.57;;
11791;SDS011;5953;52.372;9.918;2024-02-23T03:15:52;0.40;;;0.40;;
11791;SDS011;5953;52.372;9.918;2024-02-23T03:18:22;1.23;;;0.50;;
11791;SDS011;5953;52.372;9.918;2024-02-23T03:20:50;0.50;;;0.50;;
11791;SDS011;5953;52.372;9.918;2024-02-23T03:23:17;1.63;;;0.50;;
11791;SDS011;5953;52.372;9.918;2024-02-23T03:25:45;0.60;;;0.47;;
11791;SDS011;5953;52.372;9.918;2024-02-23T03:28:13;2.17;;;0.50;;
11791;SDS011;5953;52.372;9.918;2024-02-23T03:30:41;0.40;;;0.40;;
11791;SDS011;5953;52.372;9.918;2024-02-23T03:33:09;1.60;;;0.50;;
11791;SDS011;5953;52.372;9.918;2024-02-23T03:35:38;1.07;;;0.57;;
11791;SDS011;5953;52.372;9.918;2024-02-23T03:38:06;0.60;;;0.60;;
11791;SDS011;5953;52.372;9.918;2024-02-23T03:40:34;2.70;;;0.70;;
11791;SDS011;5953;52.372;9.918;2024-02-23T03:43:03;0.50;;;0.50;;
11791;SDS011;5953;52.372;9.918;2024-02-23T03:45:32;1.63;;;0.60;;
11791;SDS011;5953;52.372;9.918;2024-02-23T03:48:00;0.93;;;0.63;;
11791;SDS011;5953;52.372;9.918;2024-02-23T03:50:28;2.73;;;0.63;;
11791;SDS011;5953;52.372;9.918;2024-02-23T03:52:58;1.63;;;0.50;;
11791;SDS011;5953;52.372;9.918;2024-02-23T03:55:26;2.03;;;0.83;;
11791;SDS011;5953;52.372;9.918;2024-02-23T03:57:54;1.10;;;1.00;;
11791;SDS011;5953;52.372;9.918;2024-02-23T04:00:22;1.03;;;0.70;;
11791;SDS011;5953;52.372;9.918;2024-02-23T04:02:51;1.07;;;0.73;;
11791;SDS011;5953;52.372;9.918;2024-02-23T04:05:21;2.60;;;0.70;;
11791;SDS011;5953;52.372;9.918;2024-02-23T04:07:49;1.00;;;0.60;;
11791;SDS011;5953;52.372;9.918;2024-02-23T04:10:18;1.23;;;0.73;;
11791;SDS011;5953;52.372;9.918;2024-02-23T04:12:46;3.67;;;0.90;;
11791;SDS011;5953;52.372;9.918;2024-02-23T04:15:14;1.20;;;0.97;;
11791;SDS011;5953;52.372;9.918;2024-02-23T04:17:42;1.90;;;1.00;;
11791;SDS011;5953;52.372;9.918;2024-02-23T04:20:10;1.90;;;1.13;;
11791;SDS011;5953;52.372;9.918;2024-02-23T04:22:38;3.13;;;0.97;;
11791;SDS011;5953;52.372;9.918;2024-02-23T04:25:06;4.10;;;1.00;;
11791;SDS011;5953;52.372;9.918;2024-02-23T04:27:35;2.13;;;0.73;;
11791;SDS011;5953;52.372;9.918;2024-02-23T04:30:03;1.67;;;1.27;;
11791;SDS011;5953;52.372;9.918;2024-02-23T04:32:32;3.03;;;1.13;;
11791;SDS011;5953;52.372;9.918;2024-02-23T04:35:00;3.17;;;0.87;;
11791;SDS011;5953;52.372;9.918;2024-02-23T04:37:28;1.97;;;0.90;;
11791;SDS011;5953;52.372;9.918;2024-02-23T04:40:00;1.07;;;0.83;;
11791;SDS011;5953;52.372;9.918;2024-02-23T04:42:28;3.27;;;1.07;;
11791;SDS011;5953;52.372;9.918;2024-02-23T04:44:56;3.00;;;1.00;;
11791;SDS011;5953;52.372;9.918;2024-02-23T04:47:24;1.73;;;0.93;;
11791;SDS011;5953;52.372;9.918;2024-02-23T04:49:52;1.57;;;0.90;;
11791;SDS011;5953;52.372;9.918;2024-02-23T04:52:20;2.00;;;1.00;;
11791;SDS011;5953;52.372;9.918;2024-02-23T04:54:48;2.80;;;0.90;;
11791;SDS011;5953;52.372;9.918;2024-02-23T04:57:16;1.63;;;0.87;;
11791;SDS011;5953;52.372;9.918;2024-02-23T04:59:43;2.57;;;1.00;;
11791;SDS011;5953;52.372;9.918;2024-02-23T05:02:12;3.73;;;1.10;;
11791;SDS011;5953;52.372;9.918;2024-02-23T05:04:41;3.70;;;1.00;;
11791;SDS011;5953;52.372;9.918;2024-02-23T05:07:09;1.83;;;0.80;;
11791;SDS011;5953;52.372;9.918;2024-02-23T05:09:37;1.67;;;0.70;;
11791;SDS011;5953;52.372;9.918;2024-02-23T05:12:07;1.53;;;0.70;;
11791;SDS011;5953;52.372;9.918;2024-02-23T05:14:36;2.03;;;0.70;;
11791;SDS011;5953;52.372;9.918;2024-02-23T05:17:04;1.70;;;0.90;;
11791;SDS011;5953;52.372;9.918;2024-02-23T05:19:33;1.47;;;1.13;;
11791;SDS011;5953;52.372;9.918;2024-02-23T05:22:01;2.63;;;1.07;;
11791;SDS011;5953;52.372;9.918;2024-02-23T05:24:31;1.83;;;0.83;;
11791;SDS011;5953;52.372;9.918;2024-02-23T05:26:59;1.17;;;0.70;;
11791;SDS011;5953;52.372;9.918;2024-02-23T05:29:28;1.57;;;0.80;;
11791;SDS011;5953;52.372;9.918;2024-02-23T05:31:56;1.27;;;0.87;;
11791;SDS011;5953;52.372;9.918;2024-02-23T05:34:24;3.07;;;0.83;;
11791;SDS011;5953;52.372;9.918;2024-02-23T05:36:54;1.90;;;1.00;;
11791;SDS011;5953;52.372;9.918;2024-02-23T05:39:22;4.27;;;1.50;;
11791;SDS011;5953;52.372;9.918;2024-02-23T05:41:50;2.17;;;0.90;;
11791;SDS011;5953;52.372;9.918;2024-02-23T05:44:18;3.00;;;0.90;;
11791;SDS011;5953;52.372;9.918;2024-02-23T05:46:46;2.77;;;0.80;;
11791;SDS011;5953;52.372;9.918;2024-02-23T05:49:14;3.20;;;0.80;;
11791;SDS011;5953;52.372;9.918;2024-02-23T05:51:42;2.30;;;1.10;;
11791;SDS011;5953;52.372;9.918;2024-02-23T05:54:11;1.33;;;0.60;;
11791;SDS011;5953;52.372;9.918;2024-02-23T05:56:39;2.57;;;0.77;;
11791;SDS011;5953;52.372;9.918;2024-02-23T05:59:07;1.43;;;0.73;;
11791;SDS011;5953;52.372;9.918;2024-02-23T06:01:35;3.03;;;0.70;;
11791;SDS011;5953;52.372;9.918;2024-02-23T06:04:03;3.03;;;1.00;;
11791;SDS011;5953;52.372;9.918;2024-02-23T06:06:31;2.33;;;0.90;;
11791;SDS011;5953;52.372;9.918;2024-02-23T06:09:00;2.90;;;0.90;;
11791;SDS011;5953;52.372;9.918;2024-02-23T06:11:30;2.50;;;0.80;;
11791;SDS011;5953;52.372;9.918;2024-02-23T06:13:58;3.90;;;1.00;;
11791;SDS011;5953;52.372;9.918;2024-02-23T06:16:26;5.73;;;1.37;;
11791;SDS011;5953;52.372;9.918;2024-02-23T06:18:54;8.43;;;0.90;;
11791;SDS011;5953;52.372;9.918;2024-02-23T06:21:21;2.67;;;0.90;;
11791;SDS011;5953;52.372;9.918;2024-02-23T06:23:49;3.87;;;0.87;;
11791;SDS011;5953;52.372;9.918;2024-02-23T06:26:16;2.20;;;0.73;;
11791;SDS011;5953;52.372;9.918;2024-02-23T06:28:45;4.67;;;1.00;;
11791;SDS011;5953;52.372;9.918;2024-02-23T06:31:15;4.47;;;1.27;;
11791;SDS011;5953;52.372;9.918;2024-02-23T06:33:43;4.53;;;1.27;;
11791;SDS011;5953;52.372;9.918;2024-02-23T06:36:15;1.10;;;0.80;;
11791;SDS011;5953;52.372;9.918;2024-02-23T06:38:43;4.40;;;1.27;;
11791;SDS011;5953;52.372;9.918;2024-02-23T06:41:11;5.67;;;1.30;;
11791;SDS011;5953;52.372;9.918;2024-02-23T06:43:39;1.83;;;0.83;;
11791;SDS011;5953;52.372;9.918;2024-02-23T06:46:09;2.43;;;0.87;;
11791;SDS011;5953;52.372;9.918;2024-02-23T06:48:37;2.53;;;1.20;;
11791;SDS011;5953;52.372;9.918;2024-02-23T06:51:05;2.23;;;1.10;;
11791;SDS011;5953;52.372;9.918;2024-02-23T06:53:36;5.00;;;0.77;;
11791;SDS011;5953;52.372;9.918;2024-02-23T06:56:04;4.60;;;1.47;;
11791;SDS011;5953;52.372;9.918;2024-02-23T06:58:33;4.30;;;1.20;;
11791;SDS011;5953;52.372;9.918;2024-02-23T07:01:01;3.50;;;1.10;;
11791;SDS011;5953;52.372;9.918;2024-02-23T07:03:33;2.07;;;0.93;;
11791;SDS011;5953;52.372;9.918;2024-02-23T07:06:03;2.63;;;1.10;;
11791;SDS011;5953;52.372;9.918;2024-02-23T07:08:31;3.40;;;1.30;;
11791;SDS011;5953;52.372;9.918;2024-02-23T07:10:59;3.40;;;1.30;;
11791;SDS011;5953;52.372;9.918;2024-02-23T07:13:27;4.17;;;1.13;;
11791;SDS011;5953;52.372;9.918;2024-02-23T07:15:56;2.10;;;1.10;;
11791;SDS011;5953;52.372;9.918;2024-02-23T07:18:24;3.50;;;1.00;;
11791;SDS011;5953;52.372;9.918;2024-02-23T07:20:54;3.70;;;1.20;;
11791;SDS011;5953;52.372;9.918;2024-02-23T07:23:21;2.60;;;1.10;;
11791;SDS011;5953;52.372;9.918;2024-02-23T07:25:50;5.93;;;1.20;;
11791;SDS011;5953;52.372;9.918;2024-02-23T07:28:18;6.27;;;0.83;;
11791;SDS011;5953;52.372;9.918;2024-02-23T07:30:46;3.87;;;1.17;;
11791;SDS011;5953;52.372;9.918;2024-02-23T07:33:14;4.57;;;1.33;;
11791;SDS011;5953;52.372;9.918;2024-02-23T07:35:42;5.27;;;1.30;;
11791;SDS011;5953;52.372;9.918;2024-02-23T07:38:12;4.27;;;1.10;;
11791;SDS011;5953;52.372;9.918;2024-02-23T07:40:40;2.30;;;1.03;;
11791;SDS011;5953;52.372;9.918;2024-02-23T07:43:08;4.30;;;1.20;;
11791;SDS011;5953;52.372;9.918;2024-02-23T07:45:37;2.30;;;0.90;;
11791;SDS011;5953;52.372;9.918;2024-02-23T07:48:06;2.30;;;1.00;;
11791;SDS011;5953;52.372;9.918;2024-02-23T07:50:35;3.80;;;0.90;;
11791;SDS011;5953;52.372;9.918;2024-02-23T07:53:03;4.07;;;1.17;;
11791;SDS011;5953;52.372;9.918;2024-02-23T07:55:33;2.50;;;1.10;;
11791;SDS011;5953;52.372;9.918;2024-02-23T07:58:00;3.17;;;0.90;;
11791;SDS011;5953;52.372;9.918;2024-02-23T08:00:28;2.93;;;0.80;;
11791;SDS011;5953;52.372;9.918;2024-02-23T08:02:56;3.57;;;0.80;;
11791;SDS011;5953;52.372;9.918;2024-02-23T08:05:25;5.43;;;0.90;;
11791;SDS011;5953;52.372;9.918;2024-02-23T08:07:53;1.83;;;0.70;;
11791;SDS011;5953;52.372;9.918;2024-02-23T08:10:22;2.87;;;1.03;;
11791;SDS011;5953;52.372;9.918;2024-02-23T08:12:53;3.83;;;0.73;;
11791;SDS011;5953;52.372;9.918;2024-02-23T08:15:21;2.23;;;0.77;;
11791;SDS011;5953;52.372;9.918;2024-02-23T08:17:49;2.83;;;0.90;;
11791;SDS011;5953;52.372;9.918;2024-02-23T08:20:17;2.87;;;0.90;;
11791;SDS011;5953;52.372;9.918;2024-02-23T08:22:45;6.77;;;1.00;;
11791;SDS011;5953;52.372;9.918;2024-02-23T08:25:13;5.43;;;1.00;;
11791;SDS011;5953;52.372;9.918;2024-02-23T08:27:41;2.10;;;1.03;;
11791;SDS011;5953;52.372;9.918;2024-02-23T08:30:12;3.60;;;0.80;;
11791;SDS011;5953;52.372;9.918;2024-02-23T08:32:41;4.27;;;1.10;;
11791;SDS011;5953;52.372;9.918;2024-02-23T08:35:09;4.67;;;0.90;;
11791;SDS011;5953;52.372;9.918;2024-02-23T08:37:37;4.50;;;0.90;;
11791;SDS011;5953;52.372;9.918;2024-02-23T08:40:06;1.87;;;0.70;;
11791;SDS011;5953;52.372;9.918;2024-02-23T08:42:35;3.80;;;1.07;;
11791;SDS011;5953;52.372;9.918;2024-02-23T08:45:03;2.60;;;0.70;;
11791;SDS011;5953;52.372;9.918;2024-02-23T08:47:33;3.63;;;1.10;;
11791;SDS011;5953;52.372;9.918;2024-02-23T08:50:02;4.30;;;0.90;;
11791;SDS011;5953;52.372;9.918;2024-02-23T08:52:32;4.17;;;0.93;;
11791;SDS011;5953;52.372;9.918;2024-02-23T08:55:00;3.27;;;0.80;;
11791;SDS011;5953;52.372;9.918;2024-02-23T08:57:28;1.53;;;0.70;;
11791;SDS011;5953;52.372;9.918;2024-02-23T08:59:55;7.00;;;0.90;;
11791;SDS011;5953;52.372;9.918;2024-02-23T09:02:24;1.83;;;0.90;;
11791;SDS011;5953;52.372;9.918;2024-02-23T09:04:55;1.70;;;0.70;;
11791;SDS011;5953;52.372;9.918;2024-02-23T09:07:24;4.30;;;0.93;;
11791;SDS011;5953;52.372;9.918;2024-02-23T09:09:53;3.30;;;0.80;;
11791;SDS011;5953;52.372;9.918;2024-02-23T09:12:21;5.20;;;1.07;;
11791;SDS011;5953;52.372;9.918;2024-02-23T09:14:48;1.40;;;0.80;;
11791;SDS011;5953;52.372;9.918;2024-02-23T09:17:16;2.67;;;0.83;;
11791;SDS011;5953;52.372;9.918;2024-02-23T09:19:45;1.70;;;0.70;;
11791;SDS011;5953;52.372;9.918;2024-02-23T09:22:14;3.23;;;0.90;;
11791;SDS011;5953;52.372;9.918;2024-02-23T09:24:43;1.37;;;0.50;;
11791;SDS011;5953;52.372;9.918;2024-02-23T09:27:11;3.90;;;0.97;;
11791;SDS011;5953;52.372;9.918;2024-02-23T09:29:40;3.80;;;0.80;;
11791;SDS011;5953;52.372;9.918;2024-02-23T09:32:08;1.50;;;1.00;;
11791;SDS011;5953;52.372;9.918;2024-02-23T09:34:39;3.73;;;0.80;;
11791;SDS011;5953;52.372;9.918;2024-02-23T09:37:07;3.10;;;0.93;;
11791;SDS011;5953;52.372;9.918;2024-02-23T09:39:38;2.77;;;0.73;;
11791;SDS011;5953;52.372;9.918;2024-02-23T09:42:09;1.23;;;0.67;;
11791;SDS011;5953;52.372;9.918;2024-02-23T09:44:38;4.83;;;1.00;;
11791;SDS011;5953;52.372;9.918;2024-02-23T09:47:10;1.40;;;0.30;;
11791;SDS011;5953;52.372;9.918;2024-02-23T09:49:41;1.83;;;0.70;;
11791;SDS011;5953;52.372;9.918;2024-02-23T09:52:09;2.73;;;0.70;;
11791;SDS011;5953;52.372;9.918;2024-02-23T09:54:38;1.90;;;0.50;;
11791;SDS011;5953;52.372;9.918;2024-02-23T09:57:07;3.17;;;0.80;;
11791;SDS011;5953;52.372;9.918;2024-02-23T09:59:36;1.33;;;0.50;;
11791;SDS011;5953;52.372;9.918;2024-02-23T10:02:07;1.23;;;0.67;;
11791;SDS011;5953;52.372;9.918;2024-02-23T10:04:37;2.17;;;0.63;;
11791;SDS011;5953;52.372;9.918;2024-02-23T10:07:06;1.97;;;0.73;;
11791;SDS011;5953;52.372;9.918;2024-02-23T10:09:39;3.77;;;0.80;;
11791;SDS011;5953;52.372;9.918;2024-02-23T10:12:07;1.13;;;0.70;;
11791;SDS011;5953;52.372;9.918;2024-02-23T10:14:35;2.57;;;0.73;;
11791;SDS011;5953;52.372;9.918;2024-02-23T10:17:03;1.27;;;0.40;;
11791;SDS011;5953;52.372;9.918;2024-02-23T10:19:34;3.57;;;0.70;;
11791;SDS011;5953;52.372;9.918;2024-02-23T10:22:02;1.50;;;0.70;;
11791;SDS011;5953;52.372;9.918;2024-02-23T10:24:30;1.40;;;0.90;;
11791;SDS011;5953;52.372;9.918;2024-02-23T10:27:00;2.73;;;0.73;;
11791;SDS011;5953;52.372;9.918;2024-02-23T10:29:29;2.07;;;0.60;;
11791;SDS011;5953;52.372;9.918;2024-02-23T10:31:58;2.47;;;0.60;;
11791;SDS011;5953;52.372;9.918;2024-02-23T10:34:27;2.10;;;0.60;;
11791;SDS011;5953;52.372;9.918;2024-02-23T10:36:57;1.40;;;0.80;;
11791;SDS011;5953;52.372;9.918;2024-02-23T10:39:25;2.50;;;0.77;;
11791;SDS011;5953;52.372;9.918;2024-02-23T10:42:00;1.80;;;0.70;;
11791;SDS011;5953;52.372;9.918;2024-02-23T10:44:31;2.77;;;0.80;;
11791;SDS011;5953;52.372;9.918;2024-02-23T10:46:59;2.30;;;1.03;;
11791;SDS011;5953;52.372;9.918;2024-02-23T10:49:29;2.80;;;0.77;;
11791;SDS011;5953;52.372;9.918;2024-02-23T10:51:58;3.43;;;0.83;;
11791;SDS011;5953;52.372;9.918;2024-02-23T10:54:26;2.43;;;1.00;;
11791;SDS011;5953;52.372;9.918;2024-02-23T10:56:54;1.30;;;0.90;;
11791;SDS011;5953;52.372;9.918;2024-02-23T10:59:24;0.83;;;0.73;;
11791;SDS011;5953;52.372;9.918;2024-02-23T11:01:54;3.00;;;0.90;;
11791;SDS011;5953;52.372;9.918;2024-02-23T11:04:26;2.93;;;0.77;;
11791;SDS011;5953;52.372;9.918;2024-02-23T11:06:55;4.80;;;0.70;;
11791;SDS011;5953;52.372;9.918;2024-02-23T11:09:25;4.93;;;0.60;;
11791;SDS011;5953;52.372;9.918;2024-02-23T11:11:54;4.67;;;0.80;;
11791;SDS011;5953;52.372;9.918;2024-02-23T11:14:31;3.30;;;0.87;;
11791;SDS011;5953;52.372;9.918;2024-02-23T11:17:00;3.67;;;0.97;;
11791;SDS011;5953;52.372;9.918;2024-02-23T11:19:34;1.47;;;0.90;;
11791;SDS011;5953;52.372;9.918;2024-02-23T11:22:03;2.67;;;0.60;;
11791;SDS011;5953;52.372;9.918;2024-02-23T11:24:42;3.13;;;0.90;;
11791;SDS011;5953;52.372;9.918;2024-02-23T11:27:13;4.17;;;0.87;;
11791;SDS011;5953;52.372;9.918;2024-02-23T11:29:46;2.00;;;0.70;;
11791;SDS011;5953;52.372;9.918;2024-02-23T11:32:15;1.20;;;0.60;;
11791;SDS011;5953;52.372;9.918;2024-02-23T11:34:53;3.13;;;0.80;;
11791;SDS011;5953;52.372;9.918;2024-02-23T11:37:23;3.03;;;0.70;;
11791;SDS011;5953;52.372;9.918;2024-02-23T11:39:51;1.60;;;0.90;;
11791;SDS011;5953;52.372;9.918;2024-02-23T11:42:19;2.70;;;1.10;;
11791;SDS011;5953;52.372;9.918;2024-02-23T11:44:51;2.03;;;0.60;;
11791;SDS011;5953;52.372;9.918;2024-02-23T11:47:21;6.83;;;1.03;;
11791;SDS011;5953;52.372;9.918;2024-02-23T11:49:49;1.23;;;0.70;;
11791;SDS011;5953;52.372;9.918;2024-02-23T11:52:16;2.17;;;0.77;;
11791;SDS011;5953;52.372;9.918;2024-02-23T11:54:44;2.83;;;0.70;;
11791;SDS011;5953;52.372;9.918;2024-02-23T11:57:12;3.27;;;0.60;;
11791;SDS011;5953;52.372;9.918;2024-02-23T11:59:43;2.00;;;1.00;;
11791;SDS011;5953;52.372;9.918;2024-02-23T12:02:13;3.00;;;0.80;;
11791;SDS011;5953;52.372;9.918;2024-02-23T12:04:41;1.53;;;0.40;;
11791;SDS011;5953;52.372;9.918;2024-02-23T12:07:09;2.27;;;0.93;;
11791;SDS011;5953;52.372;9.918;2024-02-23T12:09:37;2.57;;;0.77;;
11791;SDS011;5953;52.372;9.918;2024-02-23T12:12:07;2.77;;;0.90;;
11791;SDS011;5953;52.372;9.918;2024-02-23T12:14:35;1.80;;;0.70;;
11791;SDS011;5953;52.372;9.918;2024-02-23T12:17:03;2.43;;;0.90;;
11791;SDS011;5953;52.372;9.918;2024-02-23T12:19:37;2.13;;;0.90;;
11791;SDS011;5953;52.372;9.918;2024-02-23T12:22:06;2.80;;;1.00;;
11791;SDS011;5953;52.372;9.918;2024-02-23T12:24:34;2.20;;;0.80;;
11791;SDS011;5953;52.372;9.918;2024-02-23T12:27:02;3.13;;;0.90;;
11791;SDS011;5953;52.372;9.918;2024-02-23T12:29:31;2.87;;;1.00;;
11791;SDS011;5953;52.372;9.918;2024-02-23T12:32:02;0.83;;;0.53;;
11791;SDS011;5953;52.372;9.918;2024-02-23T12:34:31;1.97;;;0.80;;
11791;SDS011;5953;52.372;9.918;2024-02-23T12:37:01;1.50;;;0.70;;
11791;SDS011;5953;52.372;9.918;2024-02-23T12:39:29;2.20;;;0.73;;
11791;SDS011;5953;52.372;9.918;2024-02-23T12:41:58;1.20;;;0.70;;
11791;SDS011;5953;52.372;9.918;2024-02-23T12:44:26;2.73;;;0.70;;
11791;SDS011;5953;52.372;9.918;2024-02-23T12:46:54;1.57;;;0.60;;
11791;SDS011;5953;52.372;9.918;2024-02-23T12:49:22;2.63;;;1.10;;
11791;SDS011;5953;52.372;9.918;2024-02-23T12:51:50;2.20;;;0.80;;
11791;SDS011;5953;52.372;9.918;2024-02-23T12:54:19;2.87;;;0.97;;
11791;SDS011;5953;52.372;9.918;2024-02-23T12:56:49;2.63;;;0.87;;
11791;SDS011;5953;52.372;9.918;2024-02-23T12:59:17;1.53;;;0.63;;
11791;SDS011;5953;52.372;9.918;2024-02-23T13:01:45;2.07;;;0.90;;
11791;SDS011;5953;52.372;9.918;2024-02-23T13:04:17;2.37;;;0.80;;
11791;SDS011;5953;52.372;9.918;2024-02-23T13:06:45;2.87;;;1.00;;
11791;SDS011;5953;52.372;9.918;2024-02-23T13:09:13;2.90;;;0.80;;
11791;SDS011;5953;52.372;9.918;2024-02-23T13:11:43;3.97;;;0.70;;
11791;SDS011;5953;52.372;9.918;2024-02-23T13:14:12;2.20;;;0.77;;
11791;SDS011;5953;52.372;9.918;2024-02-23T13:16:42;1.93;;;0.73;;
11791;SDS011;5953;52.372;9.918;2024-02-23T13:19:10;1.67;;;0.67;;
11791;SDS011;5953;52.372;9.918;2024-02-23T13:21:38;1.97;;;0.80;;
11791;SDS011;5953;52.372;9.918;2024-02-23T13:24:06;2.80;;;1.00;;
11791;SDS011;5953;52.372;9.918;2024-02-23T13:26:36;1.97;;;0.70;;
11791;SDS011;5953;52.372;9.918;2024-02-23T13:29:05;2.33;;;1.33;;
11791;SDS011;5953;52.372;9.918;2024-02-23T13:31:34;2.37;;;0.70;;
11791;SDS011;5953;52.372;9.918;2024-02-23T13:34:02;2.00;;;0.60;;
11791;SDS011;5953;52.372;9.918;2024-02-23T13:36:30;2.10;;;0.60;;
11791;SDS011;5953;52.372;9.918;2024-02-23T13:38:58;3.00;;;0.97;;
11791;SDS011;5953;52.372;9.918;2024-02-23T13:41:26;2.03;;;0.70;;
11791;SDS011;5953;52.372;9.918;2024-02-23T13:43:55;1.07;;;0.60;;
11791;SDS011;5953;52.372;9.918;2024-02-23T13:46:24;3.50;;;0.70;;
11791;SDS011;5953;52.372;9.918;2024-02-23T13:49:01;4.07;;;0.70;;
11791;SDS011;5953;52.372;9.918;2024-02-23T13:51:30;2.23;;;1.00;;
11791;SDS011;5953;52.372;9.918;2024-02-23T13:53:59;2.43;;;0.60;;
11791;SDS011;5953;52.372;9.918;2024-02-23T13:56:27;2.47;;;0.60;;
11791;SDS011;5953;52.372;9.918;2024-02-23T13:58:55;2.43;;;0.83;;
11791;SDS011;5953;52.372;9.918;2024-02-23T14:01:24;3.60;;;0.63;;
11791;SDS011;5953;52.372;9.918;2024-02-23T14:03:52;2.57;;;0.53;;
11791;SDS011;5953;52.372;9.918;2024-02-23T14:06:20;3.17;;;0.90;;
11791;SDS011;5953;52.372;9.918;2024-02-23T14:08:49;3.53;;;0.90;;
11791;SDS011;5953;52.372;9.918;2024-02-23T14:11:17;1.97;;;0.60;;
11791;SDS011;5953;52.372;9.918;2024-02-23T14:13:45;2.13;;;0.87;;
11791;SDS011;5953;52.372;9.918;2024-02-23T14:16:17;2.07;;;1.20;;
11791;SDS011;5953;52.372;9.918;2024-02-23T14:18:46;4.40;;;1.07;;
11791;SDS011;5953;52.372;9.918;2024-02-23T14:21:14;4.70;;;0.70;;
11791;SDS011;5953;52.372;9.918;2024-02-23T14:23:42;1.27;;;0.60;;
11791;SDS011;5953;52.372;9.918;2024-02-23T14:26:10;1.90;;;0.70;;
11791;SDS011;5953;52.372;9.918;2024-02-23T14:28:39;1.10;;;0.43;;
11791;SDS011;5953;52.372;9.918;2024-02-23T14:31:07;2.07;;;0.70;;
11791;SDS011;5953;52.372;9.918;2024-02-23T14:33:35;2.03;;;1.03;;
11791;SDS011;5953;52.372;9.918;2024-02-23T14:36:04;1.40;;;0.80;;
11791;SDS011;5953;52.372;9.918;2024-02-23T14:38:32;1.57;;;0.70;;
11791;SDS011;5953;52.372;9.918;2024-02-23T14:41:00;2.40;;;0.90;;
11791;SDS011;5953;52.372;9.918;2024-02-23T14:43:28;1.63;;;0.53;;
11791;SDS011;5953;52.372;9.918;2024-02-23T14:45:58;2.27;;;0.77;;
11791;SDS011;5953;52.372;9.918;2024-02-23T14:48:26;2.57;;;0.90;;
11791;SDS011;5953;52.372;9.918;2024-02-23T14:50:53;3.23;;;0.70;;
11791;SDS011;5953;52.372;9.918;2024-02-23T14:53:23;0.60;;;0.53;;
11791;SDS011;5953;52.372;9.918;2024-02-23T14:55:54;2.07;;;0.73;;
11791;SDS011;5953;52.372;9.918;2024-02-23T14:58:22;3.23;;;0.97;;
11791;SDS011;5953;52.372;9.918;2024-02-23T15:00:50;2.93;;;1.17;;
11791;SDS011;5953;52.372;9.918;2024-02-23T15:03:18;3.07;;;1.07;;
11791;SDS011;5953;52.372;9.918;2024-02-23T15:05:46;0.80;;;0.60;;
11791;SDS011;5953;52.372;9.918;2024-02-23T15:08:14;3.10;;;0.90;;
11791;SDS011;5953;52.372;9.918;2024-02-23T15:10:43;2.83;;;0.60;;